Temp: 5.1°C   Baro: 1023.7mb
  Wind: 2.0mph   Dir: ESE (105°)
  Rain: 0.0mm (0.0mm/hr)
  Solar: 0W/m2  Hum: 78%
 
Cotswold Observatory Historical Data
Daily Summary for November 09, 2018 Units:  English    Metric   Both
Next Day »
Daily Weekly Monthly Yearly Custom
  High: Low: Average:
Temperature: 55.8 °F 48.9 °F 52.2 °F
Dew Point: 52.3 °F 45.9 °F 48.6 °F
Humidity: 93% 74% 88%
Wind Speed: 25.9mph 0mph 5.8mph
Wind Gust: 34mph - -
Wind direction- - South
Pressure: 29.8 in 29.2 in -
Precipitation: 0.69 in    
Historical Graphs
 
 
Tabular Data for November 09, 2018
Time Temperature Dew Point Pressure Wind direction Wind Speed Wind Gust Humidity Rainfall Rate (Hourly) solar
00:04 49.5 °F 46.4 °F 29.8 in East 2 mph 3 mph 89% 0 in 0.00 W/m2
00:09 49.3 °F 46.2 °F 29.8 in SSE 8.9 mph 10 mph 89% 0 in 0.00 W/m2
00:14 49.1 °F 46 °F 29.8 in SSE 4 mph 5 mph 89% 0 in 0.00 W/m2
00:19 48.9 °F 45.9 °F 29.8 in SE 4.9 mph 8 mph 89% 0 in 0.00 W/m2
00:24 48.9 °F 46 °F 29.8 in SSE 6 mph 9 mph 90% 0 in 0.00 W/m2
00:29 48.9 °F 46 °F 29.8 in SSE 6 mph 11 mph 90% 0 in 0.00 W/m2
00:34 49.1 °F 46.2 °F 29.8 in SE 4.9 mph 9 mph 90% 0 in 0.00 W/m2
00:39 49.1 °F 46.2 °F 29.8 in SE 2.9 mph 8 mph 90% 0 in 0.00 W/m2
00:44 49.1 °F 46.2 °F 29.8 in SE 6.9 mph 9 mph 90% 0 in 0.00 W/m2
00:49 49.1 °F 46.2 °F 29.7 in SSE 4.9 mph 8 mph 90% 0 in 0.00 W/m2
00:54 49.1 °F 46.2 °F 29.7 in SSE 4 mph 8 mph 90% 0 in 0.00 W/m2
00:59 49.3 °F 46.4 °F 29.7 in ESE 2 mph 5 mph 90% 0 in 0.00 W/m2
01:04 49.3 °F 46.4 °F 29.7 in South 4 mph 6 mph 90% 0 in 0.00 W/m2
01:09 49.3 °F 46.4 °F 29.7 in SSE 4 mph 8 mph 90% 0 in 0.00 W/m2
01:14 49.3 °F 46.4 °F 29.8 in SSE 2 mph 8 mph 90% 0 in 0.00 W/m2
01:19 49.5 °F 46.6 °F 29.7 in SSE 2.9 mph 6 mph 90% 0 in 0.00 W/m2
01:24 49.5 °F 46.6 °F 29.7 in SSE 2 mph 4 mph 90% 0 in 0.00 W/m2
01:29 49.5 °F 46.6 °F 29.7 in SE 4.9 mph 5 mph 90% 0 in 0.00 W/m2
01:34 49.5 °F 46.6 °F 29.7 in SE 4 mph 7 mph 90% 0 in 0.00 W/m2
01:39 49.5 °F 46.6 °F 29.7 in South 4 mph 6 mph 90% 0 in 0.00 W/m2
01:44 49.6 °F 46.8 °F 29.7 in SE 4 mph 6 mph 90% 0 in 0.00 W/m2
01:49 49.6 °F 47.1 °F 29.7 in SSE 4.9 mph 5 mph 91% 0 in 0.00 W/m2
01:54 49.6 °F 47.1 °F 29.7 in SSE 4.9 mph 8 mph 91% 0 in 0.00 W/m2
01:59 49.6 °F 47.1 °F 29.7 in SE 4 mph 5 mph 91% 0 in 0.00 W/m2
02:04 49.6 °F 47.1 °F 29.7 in SSE 4 mph 9 mph 91% 0 in 0.00 W/m2
02:09 49.6 °F 47.1 °F 29.7 in SSE 6 mph 7 mph 91% 0 in 0.00 W/m2
02:14 49.6 °F 47.1 °F 29.7 in SSE 2 mph 6 mph 91% 0 in 0.00 W/m2
02:19 49.8 °F 47.3 °F 29.7 in SE 2 mph 6 mph 91% 0 in 0.00 W/m2
02:24 49.8 °F 47.3 °F 29.7 in SE 8.1 mph 8 mph 91% 0 in 0.00 W/m2
02:29 49.8 °F 47.3 °F 29.7 in SSE 2.9 mph 8 mph 91% 0 in 0.00 W/m2
02:34 49.8 °F 47.3 °F 29.7 in SSE 2.9 mph 9 mph 91% 0 in 0.00 W/m2
02:39 49.8 °F 47.3 °F 29.7 in SSE 2.9 mph 8 mph 91% 0 in 0.00 W/m2
02:44 49.8 °F 46.9 °F 29.7 in SSE 4 mph 7 mph 90% 0 in 0.00 W/m2
02:49 49.8 °F 47.3 °F 29.7 in SE 2.9 mph 8 mph 91% 0 in 0.00 W/m2
02:54 49.6 °F 46.8 °F 29.7 in SSE 0.9 mph 5 mph 90% 0 in 0.00 W/m2
02:59 49.8 °F 46.9 °F 29.7 in SSE 2 mph 7 mph 90% 0 in 0.00 W/m2
03:04 49.8 °F 46.9 °F 29.7 in SSE 2.9 mph 6 mph 90% 0 in 0.00 W/m2
03:09 49.8 °F 46.9 °F 29.7 in SSE 4 mph 8 mph 90% 0 in 0.00 W/m2
03:14 50 °F 47.1 °F 29.7 in SSE 2 mph 6 mph 90% 0 in 0.00 W/m2
03:19 50 °F 47.1 °F 29.7 in SE 2.9 mph 8 mph 90% 0 in 0.00 W/m2
03:24 50 °F 47.1 °F 29.7 in SE 2 mph 3 mph 90% 0 in 0.00 W/m2
03:29 49.8 °F 46.9 °F 29.7 in SE 2 mph 4 mph 90% 0 in 0.00 W/m2
03:34 49.8 °F 46.9 °F 29.7 in SE 4.9 mph 7 mph 90% 0 in 0.00 W/m2
03:39 49.6 °F 46.8 °F 29.7 in SE 2.9 mph 5 mph 90% 0 in 0.00 W/m2
03:44 49.6 °F 46.8 °F 29.7 in SE 0.9 mph 6 mph 90% 0 in 0.00 W/m2
03:49 49.6 °F 46.8 °F 29.7 in SE 2.9 mph 7 mph 90% 0 in 0.00 W/m2
03:54 49.6 °F 47.1 °F 29.7 in ESE 4 mph 7 mph 91% 0 in 0.00 W/m2
03:59 49.8 °F 47.3 °F 29.7 in SE 0.9 mph 9 mph 91% 0 in 0.00 W/m2
04:04 50 °F 47.1 °F 29.7 in SE 2.9 mph 3 mph 90% 0 in 0.00 W/m2
04:09 50.2 °F 47.3 °F 29.7 in SE 4.9 mph 7 mph 90% 0 in 0.00 W/m2
04:14 50 °F 47.1 °F 29.7 in SE 2.9 mph 4 mph 90% 0 in 0.00 W/m2
04:19 50 °F 47.1 °F 29.7 in SSE 0.9 mph 4 mph 90% 0 in 0.00 W/m2
04:24 50 °F 47.1 °F 29.7 in SSE 6 mph 6 mph 90% 0 in 0.00 W/m2
04:29 50.2 °F 47.3 °F 29.7 in SE 2 mph 6 mph 90% 0 in 0.00 W/m2
04:34 50 °F 47.1 °F 29.7 in SE 2.9 mph 3 mph 90% 0 in 0.00 W/m2
04:39 50 °F 47.1 °F 29.7 in Calm   2 mph 90% 0 in 0.00 W/m2
04:44 49.8 °F 46.9 °F 29.7 in SE 2 mph 2 mph 90% 0 in 0.00 W/m2
04:49 49.8 °F 47.3 °F 29.7 in SE 2.9 mph 4 mph 91% 0 in 0.00 W/m2
04:54 49.8 °F 47.3 °F 29.7 in SSE 2.9 mph 6 mph 91% 0 in 0.00 W/m2
04:59 49.8 °F 47.3 °F 29.7 in ESE 2.9 mph 5 mph 91% 0 in 0.00 W/m2
05:04 50 °F 47.5 °F 29.7 in SE 4 mph 5 mph 91% 0 in 0.00 W/m2
05:09 50.2 °F 47.7 °F 29.7 in ESE 4 mph 4 mph 91% 0 in 0.00 W/m2
05:14 50.2 °F 47.7 °F 29.7 in SE 2 mph 4 mph 91% 0 in 0.00 W/m2
05:19 50.2 °F 47.7 °F 29.7 in ESE 4 mph 8 mph 91% 0 in 0.00 W/m2
05:24 50.2 °F 47.3 °F 29.7 in SE 2 mph 4 mph 90% 0 in 0.00 W/m2
05:29 50.2 °F 47.3 °F 29.7 in SSE 2 mph 7 mph 90% 0 in 0.00 W/m2
05:34 50.2 °F 47.3 °F 29.7 in SE 4 mph 7 mph 90% 0 in 0.00 W/m2
05:39 50.2 °F 47.3 °F 29.7 in SE 6.9 mph 9 mph 90% 0 in 0.00 W/m2
05:44 50 °F 47.5 °F 29.7 in SE 4 mph 6 mph 91% 0 in 0.00 W/m2
05:49 49.8 °F 47.3 °F 29.7 in SE 4.9 mph 6 mph 91% 0 in 0.00 W/m2
05:54 49.8 °F 47.3 °F 29.7 in ESE 2.9 mph 7 mph 91% 0 in 0.00 W/m2
05:59 49.6 °F 47.1 °F 29.7 in SSE 4 mph 6 mph 91% 0 in 0.00 W/m2
06:04 49.6 °F 47.1 °F 29.7 in SE 2.9 mph 6 mph 91% 0 in 0.00 W/m2
06:09 49.5 °F 46.9 °F 29.7 in SSE 2 mph 5 mph 91% 0 in 0.00 W/m2
06:14 49.5 °F 46.9 °F 29.7 in SSE 2 mph 5 mph 91% 0 in 0.00 W/m2
06:19 49.5 °F 46.9 °F 29.7 in SE 2 mph 4 mph 91% 0 in 0.00 W/m2
06:24 49.5 °F 46.9 °F 29.7 in SSE 2 mph 5 mph 91% 0 in 0.00 W/m2
06:29 49.5 °F 46.9 °F 29.7 in SSE 0.9 mph 5 mph 91% 0 in 0.00 W/m2
06:34 49.5 °F 46.9 °F 29.7 in Calm   1 mph 91% 0 in 0.00 W/m2
06:39 49.5 °F 47.3 °F 29.7 in Calm     92% 0 in 0.00 W/m2
06:44 49.6 °F 47.5 °F 29.7 in East 0.9 mph 3 mph 92% 0 in 0.00 W/m2
06:49 49.6 °F 47.5 °F 29.7 in SSE 2.9 mph 6 mph 92% 0 in 0.00 W/m2
06:54 49.8 °F 47.7 °F 29.7 in Calm   4 mph 92% 0 in 0.00 W/m2
06:59 50 °F 47.8 °F 29.7 in East 2.9 mph 6 mph 92% 0 in 0.00 W/m2
07:04 50.2 °F 48 °F 29.7 in SE 4 mph 7 mph 92% 0 in 0.00 W/m2
07:09 50.2 °F 48 °F 29.7 in ESE 6.9 mph 8 mph 92% 0 in 0.00 W/m2
07:14 50.4 °F 48.2 °F 29.7 in ESE 4 mph 9 mph 92% 0 in 0.00 W/m2
07:19 50.4 °F 48.2 °F 29.7 in SE 4.9 mph 7 mph 92% 0 in 0.00 W/m2
07:24 50.4 °F 48.2 °F 29.7 in ESE 4 mph 8 mph 92% 0 in 0.00 W/m2
07:29 50.4 °F 48.2 °F 29.7 in East 6 mph 6 mph 92% 0 in 0.00 W/m2
07:34 50.4 °F 48.2 °F 29.7 in SE 2 mph 5 mph 92% 0 in 5.00 W/m2
07:39 50.4 °F 48.2 °F 29.7 in ESE 2 mph 4 mph 92% 0 in 7.00 W/m2
07:44 50.4 °F 48.2 °F 29.7 in SE 0.9 mph 4 mph 92% 0 in 11.00 W/m2
07:49 50.5 °F 48.4 °F 29.7 in SE 0.9 mph 7 mph 92% 0 in 9.00 W/m2
07:54 50.5 °F 48.4 °F 29.7 in South 4 mph 7 mph 92% 0 in 9.00 W/m2
07:59 50.5 °F 48.4 °F 29.6 in South 2 mph 5 mph 92% 0 in 7.00 W/m2
08:03 50.5 °F 48.4 °F 29.6 in ESE 4 mph 6 mph 92% 0 in 7.00 W/m2
08:09 50.7 °F 48.6 °F 29.6 in SE 2 mph 4 mph 92% 0 in 9.00 W/m2
08:14 50.7 °F 48.6 °F 29.6 in ESE 2 mph 5 mph 92% 0 in 16.00 W/m2
08:19 50.9 °F 48.7 °F 29.6 in SSE 0.9 mph 3 mph 92% 0 in 19.00 W/m2
08:24 51.1 °F 48.9 °F 29.6 in SSE 0.9 mph 5 mph 92% 0 in 19.00 W/m2
08:29 51.3 °F 49.1 °F 29.6 in SE 4 mph 5 mph 92% 0 in 32.00 W/m2
08:34 51.3 °F 49.1 °F 29.6 in SE 0.9 mph 6 mph 92% 0 in 42.00 W/m2
08:39 51.4 °F 49.3 °F 29.6 in SE 2.9 mph 4 mph 92% 0 in 37.00 W/m2
08:44 51.6 °F 49.5 °F 29.6 in South 4.9 mph 7 mph 92% 0 in 40.00 W/m2
08:49 51.8 °F 49.6 °F 29.6 in SSE 2.9 mph 5 mph 92% 0 in 49.00 W/m2
08:54 52.2 °F 49.6 °F 29.6 in South 4 mph 9 mph 91% 0 in 74.00 W/m2
08:59 52.3 °F 49.5 °F 29.6 in South 6 mph 10 mph 90% 0 in 62.00 W/m2
09:04 52.7 °F 49.5 °F 29.6 in South 8.9 mph 11 mph 89% 0 in 74.00 W/m2
09:09 53.1 °F 49.3 °F 29.6 in SSW 4.9 mph 11 mph 87% 0 in 62.00 W/m2
09:14 53.2 °F 49.5 °F 29.6 in SSE 4.9 mph 10 mph 87% 0 in 76.00 W/m2
09:19 53.2 °F 49.5 °F 29.6 in SE 6 mph 8 mph 87% 0 in 84.00 W/m2
09:24 53.2 °F 49.1 °F 29.6 in SSE 6.9 mph 12 mph 86% 0 in 81.00 W/m2
09:29 53.4 °F 49.3 °F 29.6 in South 8.1 mph 8 mph 86% 0 in 91.00 W/m2
09:34 53.6 °F 49.5 °F 29.6 in South 6 mph 10 mph 86% 0 in 60.00 W/m2
09:39 53.6 °F 49.3 °F 29.6 in SSE 4 mph 10 mph 85% 0 in 54.00 W/m2
09:44 53.8 °F 49.5 °F 29.6 in SSE 2 mph 11 mph 85% 0 in 58.00 W/m2
09:49 53.8 °F 49.6 °F 29.6 in South 6 mph 9 mph 86% 0 in 39.00 W/m2
09:54 53.8 °F 49.5 °F 29.6 in South 6 mph 8 mph 85% 0 in 47.00 W/m2
09:59 53.8 °F 49.6 °F 29.6 in SSE 4.9 mph 10 mph 86% 0 in 51.00 W/m2
10:04 53.8 °F 49.6 °F 29.6 in South 2.9 mph 7 mph 86% 0 in 53.00 W/m2
10:09 53.8 °F 49.6 °F 29.6 in SSE 6 mph 8 mph 86% 0 in 40.00 W/m2
10:14 53.8 °F 49.6 °F 29.6 in East 4 mph 9 mph 86% 0 in 54.00 W/m2
10:19 53.8 °F 49.6 °F 29.6 in South 6 mph 8 mph 86% 0 in 39.00 W/m2
10:24 53.8 °F 49.6 °F 29.6 in SSE 4 mph 8 mph 86% 0 in 28.00 W/m2
10:29 53.8 °F 49.6 °F 29.6 in SE 6.9 mph 8 mph 86% 0 in 32.00 W/m2
10:34 53.8 °F 50 °F 29.6 in SSE 6 mph 8 mph 87% 0 in 30.00 W/m2
10:39 53.8 °F 50 °F 29.6 in SSW 0.9 mph 6 mph 87% 0 in 25.00 W/m2
10:44 53.8 °F 50.4 °F 29.6 in SE 6.9 mph 8 mph 88% 0 in 18.00 W/m2
10:49 53.4 °F 50.2 °F 29.6 in SSE 2 mph 9 mph 89% 0 in 26.00 W/m2
10:54 53.2 °F 50 °F 29.6 in SE 4 mph 10 mph 89% 0 in 77.00 W/m2
10:59 53.2 °F 50.4 °F 29.6 in South 6 mph 9 mph 90% 0 in 60.00 W/m2
11:04 53.4 °F 50.5 °F 29.6 in SSE 4.9 mph 8 mph 90% 0 in 83.00 W/m2
11:09 53.4 °F 50.5 °F 29.6 in SSE 8.1 mph 11 mph 90% 0 in 98.00 W/m2
11:14 53.8 °F 50.9 °F 29.6 in SSW 2.9 mph 9 mph 90% 0 in 79.00 W/m2
11:19 54 °F 50.7 °F 29.6 in SSW 4.9 mph 8 mph 89% 0 in 37.00 W/m2
11:24 54.1 °F 51.3 °F 29.6 in SSW 6.9 mph 7 mph 90% 0 in 74.00 W/m2
11:29 54.1 °F 50.7 °F 29.6 in SW 4.9 mph 16 mph 88% 0 in 167.00 W/m2
11:34 54.3 °F 50.2 °F 29.6 in WSW 14.1 mph 15 mph 86% 0 in 176.00 W/m2
11:39 54.5 °F 50 °F 29.6 in WSW 2.9 mph 8 mph 85% 0 in 185.00 W/m2
11:44 54.5 °F 49.8 °F 29.6 in West 8.9 mph 12 mph 84% 0 in 213.00 W/m2
11:49 54.3 °F 48.6 °F 29.6 in WSW 8.1 mph 21 mph 81% 0 in 213.00 W/m2
11:54 54.3 °F 48.6 °F 29.6 in West 8.9 mph 19 mph 81% 0 in 197.00 W/m2
11:59 54.3 °F 48.2 °F 29.6 in SW 4.9 mph 20 mph 80% 0 in 227.00 W/m2
12:04 54.3 °F 48.6 °F 29.6 in SSW 10.1 mph 10 mph 81% 0 in 241.00 W/m2
12:09 54.3 °F 48 °F 29.6 in WSW 8.1 mph 26 mph 79% 0 in 216.00 W/m2
12:14 54.5 °F 48.4 °F 29.6 in SW 4.9 mph 19 mph 80% 0 in 244.00 W/m2
12:19 54.7 °F 48 °F 29.6 in SW 16.1 mph 20 mph 78% 0 in 357.00 W/m2
12:24 55 °F 48.4 °F 29.6 in SW 10.1 mph 13 mph 78% 0 in 406.00 W/m2
12:29 55.6 °F 48.6 °F 29.6 in SSW 6 mph 12 mph 77% 0 in 381.00 W/m2
12:34 55.8 °F 48 °F 29.6 in South 8.9 mph 18 mph 75% 0 in 214.00 W/m2
12:39 55.6 °F 47.5 °F 29.6 in SW 2.9 mph 21 mph 74% 0 in 155.00 W/m2
12:44 55.6 °F 47.5 °F 29.5 in WSW 12.1 mph 14 mph 74% 0 in 214.00 W/m2
12:49 55.6 °F 47.8 °F 29.5 in SW 6.9 mph 12 mph 75% 0 in 176.00 W/m2
12:54 55.6 °F 47.5 °F 29.5 in South 2.9 mph 9 mph 74% 0 in 188.00 W/m2
12:59 55.6 °F 47.8 °F 29.5 in South 6 mph 16 mph 75% 0 in 132.00 W/m2
13:04 55.6 °F 47.5 °F 29.5 in WSW 4 mph 18 mph 74% 0 in 243.00 W/m2
13:09 55.6 °F 47.5 °F 29.5 in SW 13 mph 18 mph 74% 0 in 151.00 W/m2
13:14 55.6 °F 47.5 °F 29.5 in SSW 8.9 mph 13 mph 74% 0 in 165.00 W/m2
13:19 55.4 °F 47.3 °F 29.5 in SE 4.9 mph 14 mph 74% 0 in 137.00 W/m2
13:24 55.2 °F 47.5 °F 29.5 in SSE 4.9 mph 10 mph 75% 0 in 100.00 W/m2
13:29 55.2 °F 47.1 °F 29.5 in SSW 13 mph 16 mph 74% 0 in 114.00 W/m2
13:34 55.2 °F 47.1 °F 29.5 in SSW 4 mph 17 mph 74% 0 in 118.00 W/m2
13:39 55 °F 46.9 °F 29.5 in Calm   8 mph 74% 0 in 111.00 W/m2
13:44 55 °F 46.9 °F 29.5 in ESE 4.9 mph 10 mph 74% 0 in 98.00 W/m2
13:49 55 °F 47.3 °F 29.5 in WSW 2.9 mph 8 mph 75% 0 in 88.00 W/m2
13:54 55 °F 47.3 °F 29.5 in South 2 mph 4 mph 75% 0 in 95.00 W/m2
13:59 55 °F 47.3 °F 29.5 in SW 2 mph 8 mph 75% 0 in 90.00 W/m2
14:04 54.9 °F 47.1 °F 29.5 in SW 4.9 mph 12 mph 75% 0 in 72.00 W/m2
14:09 54.9 °F 47.1 °F 29.5 in South 6 mph 9 mph 75% 0 in 60.00 W/m2
14:14 54.7 °F 47.3 °F 29.5 in SSW 6.9 mph 15 mph 76% 0 in 63.00 W/m2
14:19 54.7 °F 47.7 °F 29.5 in SW 4 mph 10 mph 77% 0 in 62.00 W/m2
14:24 54.7 °F 47.7 °F 29.5 in SSW 12.1 mph 17 mph 77% 0 in 51.00 W/m2
14:29 54.7 °F 47.7 °F 29.5 in SW 6.9 mph 17 mph 77% 0 in 39.00 W/m2
14:34 54.7 °F 48 °F 29.5 in SSE 11 mph 11 mph 78% 0 in 44.00 W/m2
14:39 54.7 °F 48 °F 29.5 in WSW 8.9 mph 17 mph 78% 0 in 39.00 W/m2
14:44 54.7 °F 48.4 °F 29.5 in SW 4.9 mph 15 mph 79% 0 in 35.00 W/m2
14:49 54.5 °F 47.8 °F 29.5 in West 6.9 mph 16 mph 78% 0 in 40.00 W/m2
14:54 54.3 °F 48 °F 29.5 in SSE 12.1 mph 15 mph 79% 0 in 33.00 W/m2
14:59 54.3 °F 48 °F 29.5 in South 8.9 mph 16 mph 79% 0 in 28.00 W/m2
15:04 54.5 °F 48.2 °F 29.5 in South 6 mph 16 mph 79% 0 in 25.00 W/m2
15:09 54.5 °F 47.8 °F 29.5 in SW 17.9 mph 18 mph 78% 0 in 25.00 W/m2
15:14 54.5 °F 47.8 °F 29.4 in SSW 6 mph 11 mph 78% 0 in 19.00 W/m2
15:19 54.3 °F 47.7 °F 29.4 in SSE 4 mph 11 mph 78% 0 in 14.00 W/m2
15:24 54.5 °F 48.2 °F 29.4 in SSW 4 mph 15 mph 79% 0 in 9.00 W/m2
15:29 54.7 °F 48.4 °F 29.4 in SSW 8.1 mph 14 mph 79% 0 in 5.00 W/m2
15:34 54.5 °F 48.2 °F 29.4 in West 6 mph 22 mph 79% 0 in 11.00 W/m2
15:39 54.5 °F 48.2 °F 29.4 in South 4.9 mph 18 mph 79% 0 in 14.00 W/m2
15:44 54.3 °F 48 °F 29.4 in SSW 8.1 mph 24 mph 79% 0 in 14.00 W/m2
15:49 54.5 °F 48.2 °F 29.4 in SSE 14.1 mph 20 mph 79% 0 in 12.00 W/m2
15:54 54.7 °F 48.4 °F 29.4 in SE 6 mph 17 mph 79% 0 in 11.00 W/m2
15:59 54.7 °F 48.4 °F 29.4 in South 8.1 mph 21 mph 79% 0 in 7.00 W/m2
16:04 54.7 °F 48.4 °F 29.4 in SE 4.9 mph 16 mph 79% 0 in 0.00 W/m2
16:09 54.5 °F 48.2 °F 29.4 in SSW 10.1 mph 20 mph 79% 0 in 0.00 W/m2
16:14 54.5 °F 48.2 °F 29.4 in South 13 mph 14 mph 79% 0 in 0.00 W/m2
16:19 54.5 °F 48.2 °F 29.4 in SSW 6 mph 23 mph 79% 0 in 0.00 W/m2
16:24 54.1 °F 48 °F 29.4 in SW 21 mph 21 mph 80% 0.01 in 0.00 W/m2
16:29 54 °F 48.2 °F 29.4 in SSE 12.1 mph 12 mph 81% 0.01 in 0.00 W/m2
16:34 53.8 °F 48.4 °F 29.4 in SSW 6 mph 17 mph 82% 0.01 in 0.00 W/m2
16:39 53.6 °F 48.2 °F 29.4 in ESE 10.1 mph 19 mph 82% 0.01 in 0.00 W/m2
16:44 53.2 °F 48.2 °F 29.4 in SSW 6.9 mph 16 mph 83% 0.01 in 0.00 W/m2
16:49 53.2 °F 48.6 °F 29.4 in SSE 6.9 mph 17 mph 84% 0.02 in 0.00 W/m2
16:54 53.1 °F 48.7 °F 29.4 in SE 8.1 mph 19 mph 85% 0.02 in 0.00 W/m2
16:59 52.9 °F 48.6 °F 29.4 in South 17 mph 23 mph 85% 0.02 in 0.00 W/m2
17:04 52.5 °F 48.4 °F 29.4 in SSE 4.9 mph 13 mph 86% 0.03 in 0.00 W/m2
17:09 52.3 °F 48.6 °F 29.4 in SE 8.9 mph 15 mph 87% 0.04 in 0.00 W/m2
17:14 52.3 °F 48.9 °F 29.4 in SSE 6.9 mph 28 mph 88% 0.05 in 0.00 W/m2
17:19 52.2 °F 48.7 °F 29.3 in South 6 mph 17 mph 88% 0.05 in 0.00 W/m2
17:24 52.2 °F 49.1 °F 29.3 in ESE 4.9 mph 17 mph 89% 0.05 in 0.00 W/m2
17:29 52.2 °F 49.1 °F 29.3 in South 11 mph 23 mph 89% 0.05 in 0.00 W/m2
17:34 52.3 °F 49.3 °F 29.3 in South 19 mph 19 mph 89% 0.06 in 0.00 W/m2
17:39 52.3 °F 49.3 °F 29.3 in ESE 10.1 mph 26 mph 89% 0.06 in 0.00 W/m2
17:44 52.2 °F 48.7 °F 29.3 in South 6.9 mph 17 mph 88% 0.06 in 0.00 W/m2
17:49 52.2 °F 48.7 °F 29.3 in South 10.1 mph 27 mph 88% 0.06 in 0.00 W/m2
17:54 52 °F 48.6 °F 29.3 in SSW 6.9 mph 20 mph 88% 0.05 in 0.00 W/m2
17:59 51.8 °F 48.4 °F 29.3 in South 8.1 mph 15 mph 88% 0.06 in 0.00 W/m2
18:04 51.6 °F 48.2 °F 29.3 in SSE 25.9 mph 28 mph 88% 0.05 in 0.00 W/m2
18:09 51.4 °F 48 °F 29.3 in SSE 11 mph 20 mph 88% 0.04 in 0.00 W/m2
18:14 51.4 °F 48 °F 29.3 in South 8.1 mph 23 mph 88% 0.04 in 0.00 W/m2
18:19 51.4 °F 48.4 °F 29.3 in SSE 6 mph 25 mph 89% 0.05 in 0.00 W/m2
18:24 51.3 °F 48.2 °F 29.3 in South 8.9 mph 19 mph 89% 0.05 in 0.00 W/m2
18:29 51.3 °F 48.2 °F 29.3 in SSW 16.1 mph 23 mph 89% 0.06 in 0.00 W/m2
18:34 51.3 °F 48.2 °F 29.3 in SSE 12.1 mph 34 mph 89% 0.05 in 0.00 W/m2
18:39 51.3 °F 48.2 °F 29.3 in SSE 10.1 mph 23 mph 89% 0.05 in 0.00 W/m2
18:44 51.1 °F 48 °F 29.3 in SE 8.9 mph 20 mph 89% 0.05 in 0.00 W/m2
18:49 51.1 °F 48.2 °F 29.3 in South 13 mph 23 mph 90% 0.05 in 0.00 W/m2
18:54 50.9 °F 48 °F 29.3 in SE 8.1 mph 16 mph 90% 0.06 in 0.00 W/m2
18:59 50.9 °F 48.4 °F 29.3 in SSE 8.9 mph 21 mph 91% 0.06 in 0.00 W/m2
19:04 51.1 °F 48.6 °F 29.3 in South 6 mph 13 mph 91% 0.06 in 0.00 W/m2
19:09 51.1 °F 48.9 °F 29.3 in SSW 8.1 mph 16 mph 92% 0.06 in 0.00 W/m2
19:14 51.3 °F 48.7 °F 29.3 in SSE 13 mph 18 mph 91% 0.06 in 0.00 W/m2
19:19 51.3 °F 49.1 °F 29.3 in South 8.9 mph 13 mph 92% 0.07 in 0.00 W/m2
19:24 51.3 °F 49.1 °F 29.3 in ESE 11 mph 16 mph 92% 0.08 in 0.00 W/m2
19:29 51.1 °F 48.9 °F 29.3 in SE 12.1 mph 15 mph 92% 0.08 in 0.00 W/m2
19:34 51.3 °F 49.1 °F 29.3 in South 15 mph 19 mph 92% 0.09 in 0.00 W/m2
19:39 51.4 °F 49.3 °F 29.3 in South 6.9 mph 16 mph 92% 0.1 in 0.00 W/m2
19:44 51.6 °F 49.5 °F 29.3 in SE 4.9 mph 14 mph 92% 0.11 in 0.00 W/m2
19:49 51.4 °F 49.3 °F 29.2 in SSW 6.9 mph 23 mph 92% 0.11 in 0.00 W/m2
19:54 51.6 °F 49.5 °F 29.2 in East 6.9 mph 18 mph 92% 0.11 in 0.00 W/m2
19:59 51.6 °F 49.5 °F 29.2 in SSW 12.1 mph 18 mph 92% 0.12 in 0.00 W/m2
20:04 51.8 °F 49.6 °F 29.2 in South 17 mph 17 mph 92% 0.13 in 0.00 W/m2
20:09 51.8 °F 49.6 °F 29.2 in South 6 mph 14 mph 92% 0.14 in 0.00 W/m2
20:14 51.8 °F 49.6 °F 29.2 in SE 6.9 mph 10 mph 92% 0.17 in 0.00 W/m2
20:19 52 °F 50 °F 29.2 in West 15 mph 23 mph 93% 0.17 in 0.00 W/m2
20:24 52 °F 49.6 °F 29.2 in SSW 6 mph 18 mph 92% 0.17 in 0.00 W/m2
20:29 52.3 °F 50.4 °F 29.2 in SSE 2 mph 14 mph 93% 0.17 in 0.00 W/m2
20:34 52.3 °F 50 °F 29.2 in South 11 mph 16 mph 92% 0.17 in 0.00 W/m2
20:39 52.5 °F 50.2 °F 29.2 in SW 4 mph 16 mph 92% 0.18 in 0.00 W/m2
20:43 52.5 °F 50.2 °F 29.2 in South 11 mph 18 mph 92% 0.19 in 0.00 W/m2
20:49 52.7 °F 50.7 °F 29.2 in WSW 10.1 mph 16 mph 93% 0.2 in 0.00 W/m2
20:54 52.9 °F 50.9 °F 29.2 in SW 6.9 mph 11 mph 93% 0.21 in 0.00 W/m2
20:59 52.9 °F 50.5 °F 29.2 in SW 2 mph 11 mph 92% 0.21 in 0.00 W/m2
21:04 52.9 °F 50.5 °F 29.2 in ESE 4.9 mph 9 mph 92% 0.2 in 0.00 W/m2
21:09 52.9 °F 50.5 °F 29.2 in NNW 0.9 mph 9 mph 92% 0.2 in 0.00 W/m2
21:14 52.9 °F 50.9 °F 29.2 in SE 2.9 mph 6 mph 93% 0.17 in 0.00 W/m2
21:19 52.9 °F 50.5 °F 29.2 in SW 4.9 mph 8 mph 92% 0.15 in 0.00 W/m2
21:24 53.1 °F 51.1 °F 29.2 in SE 4 mph 10 mph 93% 0.14 in 0.00 W/m2
21:29 53.2 °F 51.3 °F 29.2 in SE 8.1 mph 9 mph 93% 0.12 in 0.00 W/m2
21:34 53.4 °F 51.4 °F 29.2 in SW 4 mph 17 mph 93% 0.11 in 0.00 W/m2
21:39 53.6 °F 51.3 °F 29.2 in South 6 mph 14 mph 92% 0.09 in 0.00 W/m2
21:44 53.8 °F 51.4 °F 29.2 in SSW 6 mph 18 mph 92% 0.07 in 0.00 W/m2
21:49 54 °F 51.6 °F 29.2 in WSW 8.9 mph 11 mph 92% 0.06 in 0.00 W/m2
21:54 54 °F 51.6 °F 29.2 in WSW 8.1 mph 11 mph 92% 0.05 in 0.00 W/m2
21:59 54.1 °F 51.8 °F 29.2 in West 6.9 mph 16 mph 92% 0.04 in 0.00 W/m2
22:04 54.3 °F 52 °F 29.2 in South 12.1 mph 17 mph 92% 0.03 in 0.00 W/m2
22:09 54.5 °F 52 °F 29.2 in SSW 8.9 mph 16 mph 91% 0.02 in 0.00 W/m2
22:14 54.5 °F 52 °F 29.2 in WSW 10.1 mph 21 mph 91% 0.02 in 0.00 W/m2
22:19 54.5 °F 52 °F 29.2 in SW 11 mph 11 mph 91% 0.04 in 0.00 W/m2
22:24 54.5 °F 52 °F 29.2 in SW 8.9 mph 15 mph 91% 0.05 in 0.00 W/m2
22:29 54.5 °F 52 °F 29.2 in SSE 6.9 mph 10 mph 91% 0.06 in 0.00 W/m2
22:34 54.5 °F 52.2 °F 29.2 in SW 13 mph 15 mph 92% 0.06 in 0.00 W/m2
22:39 54.7 °F 52.3 °F 29.2 in SW 4.9 mph 19 mph 92% 0.09 in 0.00 W/m2
22:44 54.3 °F 52 °F 29.2 in West 8.1 mph 10 mph 92% 0.09 in 0.00 W/m2
22:49 54.1 °F 51.8 °F 29.2 in SW 4 mph 5 mph 92% 0.09 in 0.00 W/m2
22:54 54.1 °F 51.8 °F 29.2 in SW 4.9 mph 5 mph 92% 0.09 in 0.00 W/m2
22:59 53.8 °F 51.4 °F 29.2 in SSW 6 mph 10 mph 92% 0.09 in 0.00 W/m2
23:03 53.6 °F 51.3 °F 29.2 in WSW 2.9 mph 8 mph 92% 0.09 in 0.00 W/m2
23:09 53.4 °F 51.1 °F 29.2 in SW 4.9 mph 12 mph 92% 0.09 in 0.00 W/m2
23:14 53.1 °F 50.5 °F 29.2 in West 2.9 mph 11 mph 91% 0.09 in 0.00 W/m2
23:19 53.1 °F 50.5 °F 29.2 in WNW 6.9 mph 10 mph 91% 0.09 in 0.00 W/m2
23:24 52.5 °F 50 °F 29.2 in West 4 mph 9 mph 91% 0.09 in 0.00 W/m2
23:29 52.5 °F 50 °F 29.2 in West 2.9 mph 5 mph 91% 0.09 in 0.00 W/m2
23:33 52.5 °F 50 °F 29.2 in SW 2.9 mph 10 mph 91% 0.09 in 0.00 W/m2
23:39 52.3 °F 49.8 °F 29.2 in WSW 4.9 mph 6 mph 91% 0.07 in 0.00 W/m2
23:44 52.2 °F 49.6 °F 29.2 in SSW 2.9 mph 7 mph 91% 0.08 in 0.00 W/m2
23:49 52 °F 49.5 °F 29.2 in SW 0.9 mph 8 mph 91% 0.09 in 0.00 W/m2
23:54 52 °F 49.5 °F 29.2 in SW 4 mph 7 mph 91% 0.1 in 0.00 W/m2
23:59 51.8 °F 49.3 °F 29.2 in SW 6 mph 9 mph 91% 0.1 in 0.00 W/m2